Time;durP1;ratioP1;P1;durP2;ratioP2;P2;SDS_P1;SDS_P2;PMS_P1;PMS_P2;Temp;Humidity;BMP_temperature;BMP_pressure;BME280_temperature;BME280_humidity;BME280_pressure;Samples;Min_cycle;Max_cycle;Signal;HPM_P1;HPM_P2
2023/07/07 00:01:09;;;;;;;;;;;15.90;99.90;;;;;;5029374;28;19925;-63
2023/07/07 00:03:41;;;;;;;;;;;15.90;99.90;;;;;;5024739;28;20298;-63
2023/07/07 00:06:12;;;;;;;;;;;15.90;99.90;;;;;;5024205;28;20431;-64
2023/07/07 00:08:44;;;;;;;;;;;15.90;99.90;;;;;;5024820;28;20657;-63
2023/07/07 00:11:16;;;;;;;;;;;16.00;99.90;;;;;;5023912;28;20012;-64
2023/07/07 00:13:48;;;;;;;;;;;15.90;99.90;;;;;;5026064;28;19932;-65
2023/07/07 00:16:20;;;;;;;;;;;15.80;99.90;;;;;;5023805;28;19926;-64
2023/07/07 00:18:52;;;;;;;;;;;15.80;99.90;;;;;;5024390;28;20402;-64
2023/07/07 00:21:24;;;;;;;;;;;15.80;99.90;;;;;;5011569;28;20435;-64
2023/07/07 00:23:56;;;;;;;;;;;15.80;99.90;;;;;;5025712;28;19925;-63
2023/07/07 00:26:28;;;;;;;;;;;15.80;99.90;;;;;;5029343;28;19975;-63
2023/07/07 00:29:01;;;;;;;;;;;15.70;99.90;;;;;;5029336;28;19932;-64
2023/07/07 00:31:33;;;;;;;;;;;15.60;99.90;;;;;;5027213;28;19928;-63
2023/07/07 00:34:05;;;;;;;;;;;15.60;99.90;;;;;;5016957;28;19941;-63
2023/07/07 00:36:36;;;;;;;;;;;15.50;99.90;;;;;;5011523;28;19949;-64
2023/07/07 00:39:09;;;;;;;;;;;15.50;99.90;;;;;;5025086;28;20155;-64
2023/07/07 00:41:41;;;;;;;;;;;15.50;99.90;;;;;;5007896;28;19960;-64
2023/07/07 00:44:12;;;;;;;;;;;15.40;99.90;;;;;;5028400;28;19948;-63
2023/07/07 00:46:44;;;;;;;;;;;15.30;99.90;;;;;;5029320;28;19967;-64
2023/07/07 00:49:17;;;;;;;;;;;15.30;99.90;;;;;;5028072;28;20577;-64
2023/07/07 00:51:56;;;;;;;;;;;15.30;99.90;;;;;;5025233;28;19932;-63
2023/07/07 00:54:31;;;;;;;;;;;15.30;99.90;;;;;;5034345;28;20031;-63
2023/07/07 00:57:04;;;;;;;;;;;15.20;99.90;;;;;;5029195;28;19983;-64
2023/07/07 00:59:34;;;;;;;;;;;15.20;99.90;;;;;;5022866;28;19948;-63
2023/07/07 01:02:09;;;;;;;;;;;15.10;99.90;;;;;;5019461;28;19925;-63
2023/07/07 01:04:44;;;;;;;;;;;15.00;99.90;;;;;;5027196;28;20021;-63
2023/07/07 01:07:18;;;;;;;;;;;15.00;99.90;;;;;;5029336;28;19939;-63
2023/07/07 01:09:50;;;;;;;;;;;15.00;99.90;;;;;;5027824;28;19930;-64
2023/07/07 01:12:21;;;;;;;;;;;14.90;99.90;;;;;;5016583;28;20309;-64
2023/07/07 01:14:53;;;;;;;;;;;14.90;99.90;;;;;;5018058;28;19925;-63
2023/07/07 01:17:32;;;;;;;;;;;14.90;99.90;;;;;;5026171;28;19930;-63
2023/07/07 01:20:12;;;;;;;;;;;14.80;99.90;;;;;;5027762;28;19925;-63
2023/07/07 01:23:11;;;;;;;;;;;14.80;99.90;;;;;;5027054;28;19926;-63
2023/07/07 01:25:42;;;;;;;;;;;14.70;99.90;;;;;;5015462;28;19926;-63
2023/07/07 01:28:31;;;;;;;;;;;14.70;99.90;;;;;;5021966;28;19933;-63
2023/07/07 01:31:08;;;;;;;;;;;14.70;99.90;;;;;;5027900;28;19983;-63
2023/07/07 01:33:41;;;;;;;;;;;14.70;99.90;;;;;;5010818;28;19926;-63
2023/07/07 01:36:12;;;;;;;;;;;14.70;99.90;;;;;;5019073;28;19929;-63
2023/07/07 01:38:46;;;;;;;;;;;14.70;99.90;;;;;;5013861;28;19936;-63
2023/07/07 01:41:17;;;;;;;;;;;14.70;99.90;;;;;;5016936;28;19925;-63
2023/07/07 01:44:13;;;;;;;;;;;14.70;99.90;;;;;;5017186;28;20290;-64
2023/07/07 01:46:50;;;;;;;;;;;14.70;99.90;;;;;;5006159;28;19926;-63
2023/07/07 01:49:41;;;;;;;;;;;14.70;99.90;;;;;;5014199;28;19967;-63
2023/07/07 01:52:17;;;;;;;;;;;14.70;99.90;;;;;;5022964;28;20024;-64
2023/07/07 01:54:57;;;;;;;;;;;14.80;99.90;;;;;;5014161;28;19932;-63
2023/07/07 01:57:29;;;;;;;;;;;14.80;99.90;;;;;;5031294;28;19929;-64
2023/07/07 02:00:01;;;;;;;;;;;14.80;99.90;;;;;;5020343;28;19979;-63
2023/07/07 02:02:28;;;;;;;;;;;14.70;99.90;;;;;;5029421;28;19926;-64
2023/07/07 02:04:59;;;;;;;;;;;14.60;99.90;;;;;;5029476;28;20397;-63
2023/07/07 02:07:31;;;;;;;;;;;14.60;99.90;;;;;;5031722;28;20574;-63
2023/07/07 02:10:03;;;;;;;;;;;14.50;99.90;;;;;;5029119;28;19936;-63
2023/07/07 02:12:35;;;;;;;;;;;14.40;99.90;;;;;;5025800;28;20368;-63
2023/07/07 02:15:07;;;;;;;;;;;14.30;99.90;;;;;;5027636;28;20297;-63
2023/07/07 02:17:39;;;;;;;;;;;14.30;99.90;;;;;;5028754;28;19929;-64
2023/07/07 02:20:10;;;;;;;;;;;14.30;99.90;;;;;;5030836;28;19979;-63
2023/07/07 02:22:37;;;;;;;;;;;14.20;99.90;;;;;;5026125;28;20012;-63
2023/07/07 02:25:09;;;;;;;;;;;14.20;99.90;;;;;;5024435;28;19925;-64
2023/07/07 02:27:41;;;;;;;;;;;14.20;99.90;;;;;;5028871;28;19929;-63
2023/07/07 02:30:08;;;;;;;;;;;14.10;99.90;;;;;;5031431;28;19929;-64
2023/07/07 02:32:39;;;;;;;;;;;14.20;99.90;;;;;;5023123;28;20478;-64
2023/07/07 02:35:07;;;;;;;;;;;14.10;99.90;;;;;;5030419;28;19925;-63
2023/07/07 02:37:39;;;;;;;;;;;14.00;99.90;;;;;;5012155;28;20022;-63
2023/07/07 02:40:10;;;;;;;;;;;14.00;99.90;;;;;;5023035;28;19969;-63
2023/07/07 02:42:42;;;;;;;;;;;13.90;99.90;;;;;;5019317;28;19925;-64
2023/07/07 02:45:14;;;;;;;;;;;13.90;99.90;;;;;;5020128;28;19926;-63
2023/07/07 02:47:46;;;;;;;;;;;13.90;99.90;;;;;;5004261;28;20401;-63
2023/07/07 02:50:18;;;;;;;;;;;13.90;99.90;;;;;;5025724;28;19935;-64
2023/07/07 02:52:50;;;;;;;;;;;13.90;99.90;;;;;;5014080;28;19929;-64
2023/07/07 02:55:22;;;;;;;;;;;13.90;99.90;;;;;;5030161;28;19939;-64
2023/07/07 02:57:54;;;;;;;;;;;13.80;99.90;;;;;;5027910;28;20003;-63
2023/07/07 03:00:25;;;;;;;;;;;13.80;99.90;;;;;;5027186;28;19929;-63
2023/07/07 03:02:57;;;;;;;;;;;13.80;99.90;;;;;;5028367;28;19925;-63
2023/07/07 03:05:31;;;;;;;;;;;13.70;99.90;;;;;;5025966;28;19929;-64
2023/07/07 03:08:03;;;;;;;;;;;13.80;99.90;;;;;;5027637;28;19936;-63
2023/07/07 03:10:32;;;;;;;;;;;13.70;99.90;;;;;;5030369;28;19930;-63
2023/07/07 03:13:04;;;;;;;;;;;13.70;99.90;;;;;;5024292;28;19929;-63
2023/07/07 03:15:39;;;;;;;;;;;13.60;99.90;;;;;;5025947;28;19936;-64
2023/07/07 03:18:18;;;;;;;;;;;13.60;99.90;;;;;;5023276;28;19975;-63
2023/07/07 03:20:56;;;;;;;;;;;13.60;99.90;;;;;;5026279;28;20052;-63
2023/07/07 03:23:28;;;;;;;;;;;13.60;99.90;;;;;;5029216;28;19965;-64
2023/07/07 03:26:17;;;;;;;;;;;13.50;99.90;;;;;;5030727;28;19929;-63
2023/07/07 03:28:49;;;;;;;;;;;13.50;99.90;;;;;;5037180;28;19930;-63
2023/07/07 03:31:22;;;;;;;;;;;13.50;99.90;;;;;;5030293;28;19929;-64
2023/07/07 03:33:58;;;;;;;;;;;13.40;99.90;;;;;;5006272;28;20321;-63
2023/07/07 03:36:35;;;;;;;;;;;13.40;99.90;;;;;;5022062;28;19961;-64
2023/07/07 03:39:07;;;;;;;;;;;13.40;99.90;;;;;;5021484;28;20526;-63
2023/07/07 03:41:39;;;;;;;;;;;13.40;99.90;;;;;;5014776;28;19929;-63
2023/07/07 03:44:11;;;;;;;;;;;13.40;99.90;;;;;;5031178;28;19929;-63
2023/07/07 03:46:43;;;;;;;;;;;13.50;99.90;;;;;;5022788;28;19932;-65
2023/07/07 03:49:15;;;;;;;;;;;13.50;99.90;;;;;;5031089;28;19929;-63
2023/07/07 03:51:47;;;;;;;;;;;13.50;99.90;;;;;;5020677;28;19929;-64
2023/07/07 03:54:19;;;;;;;;;;;13.40;99.90;;;;;;5029097;28;20300;-63
2023/07/07 03:56:51;;;;;;;;;;;13.90;99.90;;;;;;5027829;28;19935;-64
2023/07/07 03:59:23;;;;;;;;;;;14.30;99.90;;;;;;5026927;28;19936;-63
2023/07/07 04:01:55;;;;;;;;;;;14.40;99.90;;;;;;5021774;28;20417;-64
2023/07/07 04:04:26;;;;;;;;;;;14.30;99.90;;;;;;5020492;28;19929;-64
2023/07/07 04:06:59;;;;;;;;;;;14.30;99.90;;;;;;5020327;28;20328;-63
2023/07/07 04:09:31;;;;;;;;;;;14.20;99.90;;;;;;5034390;28;19932;-64
2023/07/07 04:12:06;;;;;;;;;;;14.00;99.90;;;;;;5022660;28;19925;-63
2023/07/07 04:14:38;;;;;;;;;;;14.00;99.90;;;;;;5008833;28;19931;-63
2023/07/07 04:17:09;;;;;;;;;;;13.90;99.90;;;;;;5003527;28;19975;-63
2023/07/07 04:19:36;;;;;;;;;;;13.90;99.90;;;;;;5026594;28;19925;-64
2023/07/07 04:22:03;;;;;;;;;;;13.90;99.90;;;;;;5030071;28;19925;-63
2023/07/07 04:24:35;;;;;;;;;;;13.90;99.90;;;;;;5025582;28;19929;-63
2023/07/07 04:27:07;;;;;;;;;;;13.90;99.90;;;;;;5022597;28;19933;-63
2023/07/07 04:29:39;;;;;;;;;;;13.80;99.90;;;;;;5021050;28;19929;-63
2023/07/07 04:32:11;;;;;;;;;;;13.80;99.90;;;;;;5028159;28;19936;-63
2023/07/07 04:34:43;;;;;;;;;;;13.80;99.90;;;;;;5029742;28;19929;-64
2023/07/07 04:37:16;;;;;;;;;;;13.70;99.90;;;;;;5027412;28;19940;-63
2023/07/07 04:39:50;;;;;;;;;;;13.80;99.90;;;;;;5028615;28;19936;-64
2023/07/07 04:42:22;;;;;;;;;;;13.80;99.90;;;;;;5007220;28;19932;-63
2023/07/07 04:44:54;;;;;;;;;;;13.80;99.90;;;;;;5026853;28;19987;-64
2023/07/07 04:47:25;;;;;;;;;;;13.80;99.90;;;;;;5038728;28;19928;-65
2023/07/07 04:49:57;;;;;;;;;;;13.90;99.90;;;;;;5029976;28;19941;-65
2023/07/07 04:52:29;;;;;;;;;;;14.00;99.90;;;;;;5003789;28;20020;-63
2023/07/07 04:55:02;;;;;;;;;;;14.00;99.90;;;;;;5022043;28;19929;-64
2023/07/07 04:57:34;;;;;;;;;;;14.00;99.90;;;;;;5020268;28;19929;-63
2023/07/07 05:00:07;;;;;;;;;;;14.10;99.90;;;;;;5022136;28;19936;-65
2023/07/07 05:02:39;;;;;;;;;;;14.10;99.90;;;;;;5018920;28;19929;-63
2023/07/07 05:05:06;;;;;;;;;;;14.10;99.90;;;;;;5020543;28;19933;-64
2023/07/07 05:07:38;;;;;;;;;;;14.10;99.90;;;;;;5038208;28;20309;-64
2023/07/07 05:10:10;;;;;;;;;;;14.10;99.90;;;;;;5024352;28;19929;-63
2023/07/07 05:12:37;;;;;;;;;;;14.10;99.90;;;;;;5020849;28;19932;-63
2023/07/07 05:15:04;;;;;;;;;;;14.10;99.90;;;;;;5024094;28;20537;-63
2023/07/07 05:17:31;;;;;;;;;;;14.20;99.90;;;;;;5019738;28;19979;-63
2023/07/07 05:20:03;;;;;;;;;;;14.20;99.90;;;;;;5023198;28;20306;-63
2023/07/07 05:22:35;;;;;;;;;;;14.20;99.90;;;;;;5023075;28;19936;-63
2023/07/07 05:25:07;;;;;;;;;;;14.30;99.90;;;;;;5028071;28;19960;-64
2023/07/07 05:27:39;;;;;;;;;;;14.30;99.90;;;;;;5027082;28;20025;-63
2023/07/07 05:30:10;;;;;;;;;;;14.40;99.90;;;;;;5019526;28;19933;-63
2023/07/07 05:32:42;;;;;;;;;;;14.40;99.90;;;;;;5018474;28;20483;-64
2023/07/07 05:35:14;;;;;;;;;;;14.40;99.90;;;;;;5022633;28;20411;-63
2023/07/07 05:37:46;;;;;;;;;;;14.40;99.90;;;;;;5023426;28;20386;-63
2023/07/07 05:40:17;;;;;;;;;;;14.50;99.90;;;;;;5025881;28;20317;-64
2023/07/07 05:42:49;;;;;;;;;;;14.50;99.90;;;;;;5017186;28;20477;-64
2023/07/07 05:45:22;;;;;;;;;;;14.60;99.90;;;;;;5016875;28;20012;-63
2023/07/07 05:47:54;;;;;;;;;;;14.60;99.90;;;;;;5013228;28;19972;-63
2023/07/07 05:50:25;;;;;;;;;;;14.70;99.90;;;;;;5016906;28;19932;-63
2023/07/07 05:52:52;;;;;;;;;;;14.80;99.90;;;;;;5022520;28;19930;-65
2023/07/07 05:55:29;;;;;;;;;;;14.80;99.90;;;;;;5025525;28;20297;-63
2023/07/07 05:58:02;;;;;;;;;;;14.90;99.90;;;;;;5023398;28;20304;-64
2023/07/07 06:00:33;;;;;;;;;;;15.00;99.90;;;;;;5027352;28;19925;-63
2023/07/07 06:03:00;;;;;;;;;;;15.10;99.90;;;;;;5028240;28;19932;-63
2023/07/07 06:05:32;;;;;;;;;;;15.10;99.90;;;;;;5026777;28;19925;-63
2023/07/07 06:07:59;;;;;;;;;;;15.10;99.90;;;;;;5021037;28;19932;-64
2023/07/07 06:10:33;;;;;;;;;;;15.10;99.90;;;;;;5020417;28;20221;-63
2023/07/07 06:13:05;;;;;;;;;;;15.20;99.90;;;;;;5020902;28;19941;-63
2023/07/07 06:15:37;;;;;;;;;;;15.20;99.90;;;;;;5026821;28;19929;-63
2023/07/07 06:18:09;;;;;;;;;;;15.30;99.90;;;;;;5022338;28;19975;-63
2023/07/07 06:20:46;;;;;;;;;;;15.30;99.90;;;;;;5022778;28;19929;-64
2023/07/07 06:23:17;;;;;;;;;;;15.40;99.90;;;;;;5026305;28;19932;-64
2023/07/07 06:25:49;;;;;;;;;;;15.50;99.90;;;;;;5020634;28;19929;-63
2023/07/07 06:28:21;;;;;;;;;;;15.60;99.90;;;;;;5018796;28;19947;-63
2023/07/07 06:30:53;;;;;;;;;;;15.70;99.90;;;;;;5026303;28;19968;-64
2023/07/07 06:33:25;;;;;;;;;;;15.80;99.90;;;;;;5028015;28;19926;-63
2023/07/07 06:35:57;;;;;;;;;;;15.90;99.90;;;;;;5021675;28;19930;-63
2023/07/07 06:38:23;;;;;;;;;;;16.00;99.90;;;;;;5022103;28;19929;-63
2023/07/07 06:40:55;;;;;;;;;;;16.00;99.90;;;;;;5021292;28;19979;-63
2023/07/07 06:43:27;;;;;;;;;;;16.10;99.90;;;;;;5030757;28;20480;-63
2023/07/07 06:45:59;;;;;;;;;;;16.20;99.90;;;;;;5023751;28;19925;-63
2023/07/07 06:48:30;;;;;;;;;;;16.40;99.90;;;;;;5025534;28;19929;-64
2023/07/07 06:51:02;;;;;;;;;;;16.40;99.90;;;;;;5025992;28;19925;-63
2023/07/07 06:53:34;;;;;;;;;;;16.60;99.90;;;;;;5023837;28;19930;-63
2023/07/07 06:56:06;;;;;;;;;;;16.70;99.90;;;;;;5024988;28;19952;-63
2023/07/07 06:58:38;;;;;;;;;;;16.80;99.90;;;;;;5027452;28;20417;-63
2023/07/07 07:01:11;;;;;;;;;;;17.00;99.90;;;;;;5024403;28;19929;-63
2023/07/07 07:03:43;;;;;;;;;;;17.00;99.90;;;;;;5028752;28;19929;-63
2023/07/07 07:06:15;;;;;;;;;;;17.20;99.90;;;;;;5028611;28;19960;-65
2023/07/07 07:08:46;;;;;;;;;;;17.30;99.90;;;;;;5025996;28;20020;-63
2023/07/07 07:11:18;;;;;;;;;;;17.40;99.90;;;;;;5025848;28;19947;-64
2023/07/07 07:13:50;;;;;;;;;;;17.60;99.90;;;;;;5026107;28;19935;-64
2023/07/07 07:16:22;;;;;;;;;;;17.70;99.90;;;;;;5030503;28;19932;-63
2023/07/07 07:18:54;;;;;;;;;;;17.80;99.90;;;;;;5024055;28;19928;-64
2023/07/07 07:21:25;;;;;;;;;;;18.00;99.90;;;;;;5027219;28;19936;-64
2023/07/07 07:23:57;;;;;;;;;;;18.10;99.90;;;;;;5026401;28;19929;-63
2023/07/07 07:26:29;;;;;;;;;;;18.30;99.90;;;;;;5026102;28;19932;-64
2023/07/07 07:29:00;;;;;;;;;;;18.50;99.90;;;;;;5027675;28;19933;-65
2023/07/07 07:31:32;;;;;;;;;;;18.60;99.90;;;;;;5026246;28;20397;-63
2023/07/07 07:34:22;;;;;;;;;;;18.80;99.90;;;;;;5025298;28;19925;-64
2023/07/07 07:36:55;;;;;;;;;;;18.90;99.90;;;;;;5022876;28;19937;-64
2023/07/07 07:39:27;;;;;;;;;;;19.10;99.90;;;;;;5030229;28;19925;-64
2023/07/07 07:41:59;;;;;;;;;;;19.30;99.90;;;;;;5029348;28;19956;-64
2023/07/07 07:44:30;;;;;;;;;;;19.40;99.90;;;;;;5021955;28;20532;-68
2023/07/07 07:47:02;;;;;;;;;;;19.60;99.90;;;;;;5022004;28;19925;-65
2023/07/07 07:49:34;;;;;;;;;;;19.70;99.90;;;;;;5028850;28;19937;-66
2023/07/07 07:52:06;;;;;;;;;;;19.90;99.90;;;;;;5020847;28;19935;-64
2023/07/07 07:54:34;;;;;;;;;;;20.10;99.90;;;;;;5022710;28;20020;-67
2023/07/07 07:57:07;;;;;;;;;;;20.20;99.90;;;;;;5011836;28;20274;-64
2023/07/07 07:59:39;;;;;;;;;;;20.40;99.90;;;;;;5018822;28;19926;-64
2023/07/07 08:02:12;;;;;;;;;;;20.60;99.90;;;;;;5023066;28;19939;-64
2023/07/07 08:04:38;;;;;;;;;;;20.90;99.90;;;;;;5017376;28;19981;-64
2023/07/07 08:07:05;;;;;;;;;;;21.10;99.90;;;;;;5017526;28;19926;-64
2023/07/07 08:09:37;;;;;;;;;;;21.30;99.90;;;;;;5007993;28;19929;-65
2023/07/07 08:12:09;;;;;;;;;;;21.50;99.90;;;;;;5030305;28;20019;-63
2023/07/07 08:14:41;;;;;;;;;;;21.60;99.90;;;;;;5015491;28;19932;-63
2023/07/07 08:17:13;;;;;;;;;;;21.80;99.90;;;;;;5019155;28;20435;-63
2023/07/07 08:19:46;;;;;;;;;;;21.90;99.90;;;;;;5015451;28;19976;-68
2023/07/07 08:22:19;;;;;;;;;;;22.10;99.90;;;;;;5016530;28;19933;-63
2023/07/07 08:24:53;;;;;;;;;;;22.40;99.90;;;;;;5014350;28;20023;-63
2023/07/07 08:27:26;;;;;;;;;;;22.60;99.90;;;;;;5015477;28;20428;-65
2023/07/07 08:29:53;;;;;;;;;;;22.70;99.90;;;;;;5015736;28;19925;-65
2023/07/07 08:32:25;;;;;;;;;;;22.90;99.90;;;;;;5021171;28;19925;-65
2023/07/07 08:34:53;;;;;;;;;;;23.00;99.90;;;;;;5014589;28;19925;-65
2023/07/07 08:37:25;;;;;;;;;;;23.10;99.90;;;;;;5016969;28;19930;-65
2023/07/07 08:39:57;;;;;;;;;;;23.30;99.90;;;;;;5018466;28;19929;-66
2023/07/07 08:42:31;;;;;;;;;;;23.30;99.90;;;;;;5024010;28;19925;-65
2023/07/07 08:45:05;;;;;;;;;;;23.40;99.90;;;;;;5026424;28;19929;-66
2023/07/07 08:47:52;;;;;;;;;;;23.50;99.90;;;;;;5023648;28;19932;-66
2023/07/07 08:50:32;;;;;;;;;;;23.60;99.90;;;;;;5023242;28;20271;-65
2023/07/07 08:53:22;;;;;;;;;;;23.70;99.90;;;;;;5022812;28;20409;-65
2023/07/07 08:56:11;;;;;;;;;;;23.80;99.90;;;;;;5027103;28;19925;-65
2023/07/07 08:58:46;;;;;;;;;;;24.00;99.90;;;;;;5024110;28;20349;-66
2023/07/07 09:01:35;;;;;;;;;;;24.00;99.90;;;;;;5028486;28;19926;-66
2023/07/07 09:04:20;;;;;;;;;;;24.10;99.20;;;;;;5025871;28;19929;-65
2023/07/07 09:06:55;;;;;;;;;;;24.10;99.90;;;;;;5023936;28;19936;-65
2023/07/07 09:09:42;;;;;;;;;;;24.30;99.70;;;;;;5022860;28;19925;-65
2023/07/07 09:12:17;;;;;;;;;;;24.30;99.80;;;;;;5023086;28;19952;-67
2023/07/07 09:14:49;;;;;;;;;;;24.50;98.90;;;;;;5021625;28;19932;-66
2023/07/07 09:17:27;;;;;;;;;;;24.60;99.10;;;;;;5021909;28;19929;-65
2023/07/07 09:20:02;;;;;;;;;;;24.80;98.50;;;;;;5027963;28;20674;-66
2023/07/07 09:22:50;;;;;;;;;;;24.80;97.10;;;;;;5024063;28;19944;-67
2023/07/07 09:25:26;;;;;;;;;;;25.00;96.50;;;;;;5024023;28;19933;-65
2023/07/07 09:27:59;;;;;;;;;;;25.10;94.30;;;;;;5022827;28;19999;-65
2023/07/07 09:30:39;;;;;;;;;;;25.20;93.50;;;;;;5023702;28;19956;-66
2023/07/07 09:33:07;;;;;;;;;;;25.30;93.00;;;;;;5024576;28;20085;-65
2023/07/07 09:35:41;;;;;;;;;;;25.40;92.00;;;;;;5028257;28;19925;-66
2023/07/07 09:38:28;;;;;;;;;;;25.50;90.90;;;;;;5025699;28;19928;-66
2023/07/07 09:41:09;;;;;;;;;;;25.60;92.20;;;;;;5026561;28;19936;-65
2023/07/07 09:43:46;;;;;;;;;;;25.60;92.10;;;;;;5026336;28;19932;-69
2023/07/07 09:46:24;;;;;;;;;;;25.80;92.10;;;;;;5024557;28;19930;-64
2023/07/07 09:49:10;;;;;;;;;;;25.80;84.70;;;;;;5025477;28;20304;-65
2023/07/07 09:51:42;;;;;;;;;;;25.90;88.40;;;;;;5027339;28;19952;-65
2023/07/07 09:54:15;;;;;;;;;;;26.00;88.00;;;;;;5023898;28;19925;-65
2023/07/07 09:56:52;;;;;;;;;;;26.20;85.90;;;;;;5024838;28;19932;-68
2023/07/07 09:59:35;;;;;;;;;;;26.30;90.00;;;;;;5042027;28;19925;-65
2023/07/07 10:02:13;;;;;;;;;;;26.40;85.30;;;;;;5022291;28;19933;-64
2023/07/07 10:04:47;;;;;;;;;;;26.50;85.40;;;;;;5024511;28;19932;-64
2023/07/07 10:07:19;;;;;;;;;;;26.60;85.00;;;;;;5026858;28;19933;-64
2023/07/07 10:09:46;;;;;;;;;;;26.70;85.10;;;;;;5025413;28;19929;-64
2023/07/07 10:12:18;;;;;;;;;;;26.70;79.50;;;;;;5022580;28;19925;-64
2023/07/07 10:14:50;;;;;;;;;;;26.70;80.00;;;;;;5026850;28;19960;-64
2023/07/07 10:17:40;;;;;;;;;;;26.90;79.50;;;;;;5027414;28;19933;-64
2023/07/07 10:20:12;;;;;;;;;;;27.00;80.20;;;;;;5021198;28;19933;-64
2023/07/07 10:22:44;;;;;;;;;;;27.20;77.40;;;;;;5022597;28;19961;-64
2023/07/07 10:25:16;;;;;;;;;;;27.30;74.10;;;;;;5021919;28;19925;-65
2023/07/07 10:27:52;;;;;;;;;;;27.30;74.50;;;;;;5029350;28;20393;-64
2023/07/07 10:30:19;;;;;;;;;;;27.40;75.80;;;;;;5022538;28;19933;-64
2023/07/07 10:32:51;;;;;;;;;;;27.50;73.30;;;;;;5025037;28;19936;-64
2023/07/07 10:35:19;;;;;;;;;;;27.40;71.10;;;;;;5027057;28;19960;-64
2023/07/07 10:37:51;;;;;;;;;;;27.40;72.00;;;;;;5025736;28;19925;-64
2023/07/07 10:40:25;;;;;;;;;;;27.50;72.40;;;;;;5023816;28;19933;-64
2023/07/07 10:42:55;;;;;;;;;;;27.50;71.80;;;;;;5021641;28;19969;-64
2023/07/07 10:45:28;;;;;;;;;;;27.70;68.30;;;;;;5031303;28;19936;-64
2023/07/07 10:48:00;;;;;;;;;;;27.90;69.30;;;;;;5035617;28;19970;-64
2023/07/07 10:50:33;;;;;;;;;;;27.90;67.30;;;;;;5037109;28;19964;-64
2023/07/07 10:53:19;;;;;;;;;;;28.00;68.10;;;;;;5032778;28;19932;-64
2023/07/07 10:56:03;;;;;;;;;;;28.10;67.10;;;;;;5033662;28;20016;-64
2023/07/07 10:59:07;;;;;;;;;;;28.30;63.40;;;;;;5029228;28;19936;-64
2023/07/07 11:01:50;;;;;;;;;;;28.40;63.50;;;;;;4989202;28;19925;-64
2023/07/07 11:04:25;;;;;;;;;;;28.20;62.50;;;;;;5035544;28;19968;-64
2023/07/07 11:07:12;;;;;;;;;;;28.20;62.30;;;;;;5023635;28;19926;-64
2023/07/07 11:09:50;;;;;;;;;;;28.40;66.40;;;;;;5022666;28;19933;-64
2023/07/07 11:12:24;;;;;;;;;;;28.50;63.60;;;;;;5022619;28;19925;-64
2023/07/07 11:15:32;;;;;;;;;;;28.60;63.40;;;;;;5024746;28;19936;-64
2023/07/07 11:18:06;;;;;;;;;;;28.70;64.10;;;;;;4952893;28;20045;-65
2023/07/07 11:20:38;;;;;;;;;;;28.90;64.30;;;;;;5019321;28;19929;-64
2023/07/07 11:23:30;;;;;;;;;;;28.90;59.20;;;;;;5025264;28;19930;-64
2023/07/07 11:26:23;;;;;;;;;;;28.80;58.20;;;;;;5027880;28;20309;-64
2023/07/07 11:28:55;;;;;;;;;;;28.80;61.60;;;;;;5024971;28;19926;-64
2023/07/07 11:31:29;;;;;;;;;;;28.90;62.60;;;;;;5025485;28;19929;-64
2023/07/07 11:34:16;;;;;;;;;;;29.00;63.10;;;;;;5028361;28;19925;-64
2023/07/07 11:37:00;;;;;;;;;;;29.10;61.20;;;;;;5023528;28;19930;-64
2023/07/07 11:39:44;;;;;;;;;;;29.30;60.80;;;;;;5025643;28;19932;-64
2023/07/07 11:42:35;;;;;;;;;;;29.50;63.00;;;;;;5030856;28;19925;-64
2023/07/07 11:45:14;;;;;;;;;;;29.70;61.10;;;;;;5027231;28;19933;-64
2023/07/07 11:47:46;;;;;;;;;;;29.80;61.00;;;;;;5028848;28;19929;-64
2023/07/07 11:50:24;;;;;;;;;;;29.90;58.20;;;;;;5028855;28;20286;-64
2023/07/07 11:52:56;;;;;;;;;;;30.00;58.10;;;;;;5022542;28;19935;-64
2023/07/07 11:55:47;;;;;;;;;;;30.00;58.80;;;;;;5025892;28;19929;-64
2023/07/07 11:58:19;;;;;;;;;;;30.10;58.60;;;;;;5025378;28;20304;-64
2023/07/07 12:00:53;;;;;;;;;;;30.00;57.60;;;;;;5024789;28;19941;-65
2023/07/07 12:03:43;;;;;;;;;;;30.10;58.80;;;;;;5028253;28;20401;-67
2023/07/07 12:06:24;;;;;;;;;;;30.00;54.80;;;;;;5026485;28;19925;-64
2023/07/07 12:08:56;;;;;;;;;;;29.90;57.10;;;;;;5029437;28;19929;-64
2023/07/07 12:11:31;;;;;;;;;;;29.90;56.50;;;;;;5029293;28;19925;-64
2023/07/07 12:14:02;;;;;;;;;;;29.90;57.70;;;;;;5026305;28;19936;-64
2023/07/07 12:16:37;;;;;;;;;;;30.00;56.90;;;;;;5025398;28;19979;-64
2023/07/07 12:19:13;;;;;;;;;;;29.90;54.30;;;;;;5028161;28;20032;-64
2023/07/07 12:21:45;;;;;;;;;;;30.10;53.60;;;;;;5027764;28;19929;-64
2023/07/07 12:24:24;;;;;;;;;;;30.20;53.10;;;;;;5027423;28;19929;-65
2023/07/07 12:27:02;;;;;;;;;;;30.40;53.70;;;;;;5025471;28;19936;-64
2023/07/07 12:29:39;;;;;;;;;;;30.60;51.40;;;;;;5024340;28;19953;-64
2023/07/07 12:32:11;;;;;;;;;;;30.70;51.60;;;;;;5027293;28;20306;-64
2023/07/07 12:35:00;;;;;;;;;;;30.50;49.40;;;;;;5025944;28;19929;-64
2023/07/07 12:37:27;;;;;;;;;;;30.40;50.40;;;;;;5031008;28;19964;-64
2023/07/07 12:40:04;;;;;;;;;;;30.50;52.00;;;;;;5027347;28;20298;-64
2023/07/07 12:42:40;;;;;;;;;;;30.70;51.50;;;;;;5034169;28;19925;-65
2023/07/07 12:45:15;;;;;;;;;;;30.80;50.40;;;;;;5025688;28;20020;-64
2023/07/07 12:47:48;;;;;;;;;;;30.90;50.90;;;;;;5026430;28;19935;-64
2023/07/07 12:50:31;;;;;;;;;;;31.10;50.30;;;;;;5026268;28;19972;-64
2023/07/07 12:53:05;;;;;;;;;;;31.30;49.60;;;;;;5024733;28;19929;-64
2023/07/07 12:55:36;;;;;;;;;;;31.30;48.90;;;;;;5026862;28;19925;-64
2023/07/07 12:58:11;;;;;;;;;;;30.90;49.90;;;;;;5027103;28;19932;-64
2023/07/07 13:00:39;;;;;;;;;;;30.90;48.30;;;;;;5028218;28;20441;-64
2023/07/07 13:03:10;;;;;;;;;;;31.10;49.80;;;;;;5026394;28;20015;-64
2023/07/07 13:05:46;;;;;;;;;;;31.10;47.40;;;;;;5026042;28;19925;-64
2023/07/07 13:08:34;;;;;;;;;;;31.20;47.30;;;;;;5022241;28;20290;-64
2023/07/07 13:11:06;;;;;;;;;;;31.30;50.30;;;;;;5027576;28;19925;-64
2023/07/07 13:13:38;;;;;;;;;;;31.50;48.40;;;;;;5026780;28;19925;-63
2023/07/07 13:16:12;;;;;;;;;;;31.50;48.00;;;;;;5026742;28;20016;-64
2023/07/07 13:18:44;;;;;;;;;;;31.60;49.60;;;;;;5029347;28;19929;-64
2023/07/07 13:21:16;;;;;;;;;;;31.80;49.90;;;;;;5026976;28;20312;-64
2023/07/07 13:23:50;;;;;;;;;;;31.90;49.60;;;;;;5028161;28;20429;-64
2023/07/07 13:26:35;;;;;;;;;;;32.10;47.30;;;;;;5025567;28;19936;-64
2023/07/07 13:29:07;;;;;;;;;;;32.00;45.80;;;;;;5028858;28;19929;-64
2023/07/07 13:31:38;;;;;;;;;;;31.90;45.80;;;;;;5027299;28;20138;-64
2023/07/07 13:34:17;;;;;;;;;;;32.10;48.30;;;;;;5026365;28;20800;-64
2023/07/07 13:36:49;;;;;;;;;;;32.20;47.90;;;;;;5026905;28;19926;-64
2023/07/07 13:39:21;;;;;;;;;;;32.30;47.70;;;;;;5028247;28;19947;-64
2023/07/07 13:41:53;;;;;;;;;;;32.40;46.90;;;;;;5027482;28;19929;-64
2023/07/07 13:44:24;;;;;;;;;;;32.50;48.20;;;;;;5028180;28;19940;-64
2023/07/07 13:47:04;;;;;;;;;;;32.80;45.00;;;;;;5029248;28;20291;-64
2023/07/07 13:49:36;;;;;;;;;;;33.10;46.40;;;;;;5028454;28;19933;-65
2023/07/07 13:52:11;;;;;;;;;;;33.20;43.90;;;;;;5027182;28;20397;-64
2023/07/07 13:54:46;;;;;;;;;;;33.30;44.40;;;;;;5026608;28;20294;-64
2023/07/07 13:57:22;;;;;;;;;;;33.40;44.60;;;;;;5026303;28;19929;-64
2023/07/07 13:59:54;;;;;;;;;;;33.40;43.00;;;;;;5027050;28;19929;-65
2023/07/07 14:02:27;;;;;;;;;;;33.40;44.20;;;;;;5031001;28;20400;-64
2023/07/07 14:05:08;;;;;;;;;;;33.70;43.60;;;;;;5033786;28;20308;-64
2023/07/07 14:07:40;;;;;;;;;;;33.90;43.80;;;;;;5038914;28;19925;-64
2023/07/07 14:10:32;;;;;;;;;;;33.80;42.70;;;;;;5039118;28;19925;-64
2023/07/07 14:13:21;;;;;;;;;;;33.50;43.90;;;;;;5034336;28;19936;-66
2023/07/07 14:15:59;;;;;;;;;;;33.40;43.10;;;;;;5036516;28;20457;-66
2023/07/07 14:18:33;;;;;;;;;;;33.40;43.40;;;;;;5034691;28;19932;-65
2023/07/07 14:21:06;;;;;;;;;;;33.70;44.20;;;;;;5033608;28;19992;-64
2023/07/07 14:23:38;;;;;;;;;;;33.90;44.20;;;;;;5042393;28;20039;-64
2023/07/07 14:26:17;;;;;;;;;;;33.80;43.40;;;;;;5037942;28;20405;-64
2023/07/07 14:28:51;;;;;;;;;;;33.70;43.50;;;;;;5040482;28;19940;-64
2023/07/07 14:31:23;;;;;;;;;;;34.00;41.10;;;;;;5034361;28;19947;-64
2023/07/07 14:34:02;;;;;;;;;;;34.20;39.60;;;;;;5028762;28;20402;-64
2023/07/07 14:36:40;;;;;;;;;;;34.30;41.30;;;;;;5022343;28;19933;-64
2023/07/07 14:39:21;;;;;;;;;;;34.60;38.70;;;;;;5023128;28;19940;-64
2023/07/07 14:41:54;;;;;;;;;;;34.40;37.80;;;;;;5026640;28;19932;-64
2023/07/07 14:44:44;;;;;;;;;;;34.30;40.00;;;;;;5020212;28;19972;-64
2023/07/07 14:47:18;;;;;;;;;;;34.00;37.80;;;;;;5028559;28;19925;-64
2023/07/07 14:49:50;;;;;;;;;;;33.80;38.40;;;;;;5023963;28;19925;-64
2023/07/07 14:52:27;;;;;;;;;;;33.90;40.40;;;;;;5025913;28;19931;-64
2023/07/07 14:55:01;;;;;;;;;;;34.00;41.40;;;;;;5016454;28;19926;-64
2023/07/07 14:57:37;;;;;;;;;;;34.30;40.90;;;;;;5024202;28;20409;-64